Ellington Field
KEFD : now visible

Airfield :











YOU CAN JOIN US ON...

 
LOGIN :

Register | Disclaimer

   EN    FR    IT 

 









Legend :    VFR   Marginal VFR   IFR   Intensive IFR   Very Intensive IFR
Visi :
Ceiling :
>= 8 km
>= 3000ft
5 to 8 km
1000 to 3000 ft
1500m to 5 km
500 to 1000 ft
800 to 1500m
200 to 500 ft
< 800m
< 200 ft
Symbols :   Thunderstorms  Fog  Heavy snow  Heavy precipitations  Wind > 20 kt






- Airport Elevation : 32 ft


KEFD - Ellington Field

CURRENT METAR :
  • 200350Z 01006KT 10SM SKC 09/M02 A3048

EXPIRED METARs :
  • 200250Z 02009KT 10SM SKC 10/M02 A3046
  • 200150Z 02006KT 10SM SKC 10/M02 A3044

TAF TAF KEFD
Valid from the 20 at 04:00 until the 21 at 10:00 UTC


200400Z 2004/2110 03009KT 9999 SKC 510012 QNH3050INS
BECMG 2016/2017 02012KT 9999 SKC QNH3058INS
BECMG 2022/2023 01006KT 9999 SKC QNH3051INS TX13/1920Z TN05/2013Z



MET'MAP, your aeronautical weather chart ! - Copyright ORBIFLY December 2007 - Disclaimer

ORBIFLY MET'MAP TEAM :

Programming & Development : Alexandra Zaïnal
Concept & original design : Baudouin d'Aumeries
Assistance for programming : Marc-Olivier Méhu
Technical & hardware support : Manuel Goepfert

Contact : metmap@orbifly.com




SOURCES & CREDITS :

   NOAA       Earth
Advisory